ペトロパブロフスク・カムチャツキー の空港の天気 - METARとTAF

ペトロパブロフスク・カムチャツキー空港 ( UHPP / PKC ) - ロシア ペトロパブロフスク・カムチャツキー
飛行場実況気象(Metar)
観測時間11/27 20:00 MAGT (11/27 09:00 UTC)
風向・風速南西 5m/s
視程10km以上
天気現象弱いしゅう雪 弱いしゅう雨
全天の8割程度の雲 雲底高度 340m
全天を覆う雲 雲底高度 880m
気温1℃
湿度100%
気圧1001hPa
METARUHPP 270900Z 22005MPS 9999 -SHSNRA BKN011 OVC029CB 01/01 Q1001 R16R/490331 NOSIG RMK QFE747/0997
過去の天気等 Google飛行場航空写真 Wunderground天気予報

過去48時間のMETAR

飛行場予報(TAF)
発表時間: 11/27 18:30 MAGT (11/27 07:30 UTC)
予報対象時間: 27日20時 MAGT ~ 29日2時 MAGT
風向・風速東南東 3m/s 瞬間風速 12m/s
視程6000m
天気現象弱いしゅう雨
全天の8割程度の雲 雲底高度 270m
全天を覆う積乱雲 雲底高度 460m
27日20時 MAGT ~ 28日9時 MAGT に一時的に
視程700m
天気現象しゅう雪雨 霧
全天を覆う雲 鉛直視程 60m
28日9時 MAGT ~ 29日2時 MAGT に一時的に
風向・風速西 8m/s 瞬間風速 18m/s
視程900m
天気現象強いしゅう雪 高い地吹雪
全天を覆う雲 鉛直視程 90m
TAF UHPP 270730Z 2709/2815 12003G12MPS 6000 -SHRA BKN009 OVC015CB
TEMPO 2709/2722 0700 SHSNRA FG VV002
TEMPO 2722/2815 28008G18MPS 0900 +SHSN BLSN VV003